createdAt,value
2019-04-16T00:01:29.284Z,98945.73
2019-04-16T00:04:22.274Z,98941.58
2019-04-16T00:07:06.862Z,98902.09
2019-04-16T00:09:57.304Z,98932.14
2019-04-16T00:12:32.453Z,98923.19
2019-04-16T00:15:09.330Z,98923.19
2019-04-16T00:17:44.401Z,98922.86
2019-04-16T00:20:18.050Z,98922.86
2019-04-16T00:23:08.647Z,98926.20
2019-04-16T00:25:41.072Z,98928.75
2019-04-16T00:28:14.630Z,98928.29
2019-04-16T00:30:47.364Z,98925.88
2019-04-16T00:33:19.842Z,98925.12
2019-04-16T00:35:52.418Z,98925.12
2019-04-16T00:38:24.738Z,98922.16
2019-04-16T00:41:01.334Z,98925.69
2019-04-16T00:43:33.406Z,98921.48
2019-04-16T00:46:08.290Z,98921.06
2019-04-16T00:48:40.307Z,98919.16
2019-04-16T00:51:12.375Z,98924.28
2019-04-16T00:53:44.558Z,98919.84
2019-04-16T00:56:17.298Z,98921.03
2019-04-16T00:58:52.033Z,98917.38
2019-04-16T01:01:23.771Z,98917.39
2019-04-16T01:03:56.472Z,98917.39
2019-04-16T01:06:28.829Z,98917.44
2019-04-16T01:09:01.417Z,98921.39
2019-04-16T01:11:35.739Z,98914.84
2019-04-16T01:14:10.002Z,98896.59
2019-04-16T01:16:42.383Z,98896.59
2019-04-16T01:19:15.881Z,98905.03
2019-04-16T01:21:48.347Z,98904.73
2019-04-16T01:24:21.191Z,98875.09
2019-04-16T01:26:55.363Z,98890.25
2019-04-16T01:29:27.978Z,98890.25
2019-04-16T01:32:02.291Z,98884.53
2019-04-16T01:34:34.570Z,98871.44
2019-04-16T01:37:14.698Z,98871.44
2019-04-16T01:39:48.625Z,98884.69
2019-04-16T01:42:23.517Z,98884.20
2019-04-16T01:44:59.402Z,98890.67
2019-04-16T01:47:29.391Z,98891.66
2019-04-16T01:50:01.877Z,98880.11
2019-04-16T01:52:34.382Z,98888.02
2019-04-16T01:55:08.380Z,98886.25
2019-04-16T01:57:40.718Z,98889.55
2019-04-16T02:00:13.517Z,98889.55
2019-04-16T02:02:47.005Z,98885.81
2019-04-16T02:05:20.364Z,98887.46
2019-04-16T02:07:56.369Z,98885.37
2019-04-16T02:10:28.461Z,98886.39
2019-04-16T02:13:00.835Z,98881.97
2019-04-16T02:15:33.325Z,98885.46
2019-04-16T02:18:05.670Z,98889.69
2019-04-16T02:20:40.304Z,98889.69
2019-04-16T02:23:13.573Z,98888.91
2019-04-16T02:25:48.458Z,98869.30
2019-04-16T02:28:21.858Z,98869.30
2019-04-16T02:30:54.689Z,98880.05
2019-04-16T02:33:30.665Z,98880.05
2019-04-16T02:36:06.640Z,98882.17
2019-04-16T02:38:46.281Z,98876.25
2019-04-16T02:41:14.532Z,98879.25
2019-04-16T02:43:47.290Z,98877.12
2019-04-16T02:46:19.659Z,98858.48
2019-04-16T02:50:39.291Z,98880.52
2019-04-16T02:53:16.317Z,98872.08
2019-04-16T02:55:54.460Z,98879.30
2019-04-16T02:58:34.526Z,98879.30
2019-04-16T03:01:24.230Z,98877.34
2019-04-16T03:04:04.321Z,98873.45
2019-04-16T03:06:37.985Z,98867.89
2019-04-16T03:09:10.708Z,98863.96
2019-04-16T03:11:45.618Z,98863.96
2019-04-16T03:14:17.704Z,98863.28
2019-04-16T03:17:10.203Z,98865.72
2019-04-16T03:19:44.302Z,98867.03
2019-04-16T03:22:16.665Z,98869.16
2019-04-16T03:24:49.166Z,98869.16
2019-04-16T03:27:22.864Z,98865.75
2019-04-16T03:29:55.418Z,98866.24
2019-04-16T03:32:33.582Z,98875.10
2019-04-16T03:35:02.160Z,98873.00
2019-04-16T03:37:34.673Z,98871.39
2019-04-16T03:40:16.177Z,98871.39
2019-04-16T03:42:42.766Z,98882.98
2019-04-16T03:45:15.334Z,98885.39
2019-04-16T03:47:50.857Z,98880.88
2019-04-16T03:50:22.285Z,98880.88
2019-04-16T03:52:55.270Z,98877.66
2019-04-16T03:55:28.301Z,98881.09
2019-04-16T03:58:05.442Z,98881.09
2019-04-16T04:00:35.354Z,98889.55
2019-04-16T04:03:07.622Z,98887.61
2019-04-16T04:05:40.250Z,98887.61
2019-04-16T04:08:16.092Z,98894.15
2019-04-16T04:10:46.773Z,98899.84
2019-04-16T04:13:18.907Z,98899.84
2019-04-16T04:15:55.131Z,98904.11
2019-04-16T04:18:27.748Z,98903.77
2019-04-16T04:21:00.313Z,98909.54
2019-04-16T04:23:32.601Z,98909.39
2019-04-16T04:26:05.479Z,98909.39
2019-04-16T04:31:32.022Z,98908.58
2019-04-16T04:34:01.854Z,98915.76
2019-04-16T04:36:35.442Z,98920.66
2019-04-16T04:39:14.416Z,98923.29
2019-04-16T04:41:43.574Z,98917.90
2019-04-16T04:44:16.291Z,98919.37
2019-04-16T04:46:48.655Z,98906.30
2019-04-16T04:49:21.288Z,98906.30
2019-04-16T04:51:53.785Z,98900.59
2019-04-16T04:54:26.414Z,98900.59
2019-04-16T04:56:59.929Z,98935.89
2019-04-16T04:59:36.485Z,98938.34
2019-04-16T05:02:06.768Z,98941.44
2019-04-16T05:04:43.896Z,98930.81
2019-04-16T05:07:17.887Z,98942.27
2019-04-16T05:09:50.645Z,98945.85
2019-04-16T05:12:23.294Z,98946.02
2019-04-16T05:14:58.468Z,98946.19
2019-04-16T05:17:31.039Z,98920.34
2019-04-16T05:22:21.537Z,98950.59
2019-04-16T05:24:54.328Z,98952.89
2019-04-16T05:27:29.452Z,98928.20
2019-04-16T05:30:02.288Z,98928.20
2019-04-16T05:32:34.769Z,98939.95
2019-04-16T05:35:10.404Z,98939.95
2019-04-16T05:37:43.454Z,98957.92
2019-04-16T05:40:16.242Z,98954.46
2019-04-16T05:42:48.755Z,98965.04
2019-04-16T05:45:21.294Z,98965.04
2019-04-16T05:47:53.819Z,98974.63
2019-04-16T05:50:29.687Z,98974.63
2019-04-16T05:53:01.144Z,98974.27
2019-04-16T05:55:38.370Z,98981.30
2019-04-16T05:58:11.842Z,98985.19
2019-04-16T06:00:45.865Z,98989.86
2019-04-16T06:03:21.877Z,98988.80
2019-04-16T06:05:56.307Z,98995.10
2019-04-16T06:08:28.793Z,98999.94
2019-04-16T06:11:03.792Z,98992.37
2019-04-16T06:13:53.349Z,98998.03
2019-04-16T06:16:27.521Z,98999.28
2019-04-16T06:19:04.420Z,98996.70
2019-04-16T06:21:41.537Z,99001.89
2019-04-16T06:24:17.367Z,99011.97
2019-04-16T06:27:01.663Z,98985.20
2019-04-16T06:29:39.807Z,98985.20
2019-04-16T06:32:18.335Z,99019.52
2019-04-16T06:34:57.751Z,99014.64
2019-04-16T06:37:32.290Z,99024.38
2019-04-16T06:40:24.276Z,99021.86
2019-04-16T06:43:02.759Z,99025.05
2019-04-16T06:45:37.978Z,99025.05
2019-04-16T06:48:13.816Z,99023.17
2019-04-16T06:50:51.053Z,99026.84
2019-04-16T06:53:34.450Z,99029.54
2019-04-16T06:56:09.590Z,99029.54
2019-04-16T06:58:51.530Z,99022.30
2019-04-16T07:01:28.719Z,99017.16
2019-04-16T07:04:06.486Z,99010.69
2019-04-16T07:06:46.672Z,99001.02
2019-04-16T07:09:35.135Z,99001.31
2019-04-16T07:12:02.829Z,99000.64
2019-04-16T07:14:36.162Z,98991.75
2019-04-16T07:17:10.447Z,98990.42
2019-04-16T07:19:50.938Z,98990.42
2019-04-16T07:22:24.430Z,98993.42
2019-04-16T07:24:57.421Z,98990.72
2019-04-16T07:27:36.124Z,98977.91
2019-04-16T07:30:09.647Z,98982.60
2019-04-16T07:32:46.957Z,98988.14
2019-04-16T07:35:37.279Z,98991.98
2019-04-16T07:38:24.888Z,98984.66
2019-04-16T07:41:23.242Z,98975.37
2019-04-16T07:44:08.080Z,98975.37
2019-04-16T07:46:47.051Z,98981.88
2019-04-16T07:49:27.295Z,98981.53
2019-04-16T07:52:18.795Z,98984.05
2019-04-16T07:54:54.435Z,98984.05
2019-04-16T07:57:27.425Z,98984.16
2019-04-16T08:00:00.298Z,98982.00
2019-04-16T08:02:34.183Z,98998.56
2019-04-16T08:05:10.004Z,98993.25
2019-04-16T08:07:42.859Z,98992.55
2019-04-16T08:10:16.989Z,98992.55
2019-04-16T08:12:51.362Z,98991.34
2019-04-16T08:15:24.066Z,98991.39
2019-04-16T08:17:56.655Z,98979.56
2019-04-16T08:20:29.320Z,98979.56
2019-04-16T08:23:03.352Z,98971.70
2019-04-16T08:25:35.907Z,98971.70
2019-04-16T08:28:08.882Z,98975.02
2019-04-16T08:30:43.049Z,98972.78
2019-04-16T08:33:15.807Z,98974.61
2019-04-16T08:35:48.535Z,98970.36
2019-04-16T08:38:21.294Z,98967.88
2019-04-16T08:40:54.320Z,98970.94
2019-04-16T08:43:29.682Z,98957.71
2019-04-16T08:46:00.814Z,98954.38
2019-04-16T08:48:33.490Z,98954.38
2019-04-16T08:51:06.434Z,98983.54
2019-04-16T08:53:38.895Z,98980.80
2019-04-16T08:56:11.338Z,98978.61
2019-04-16T08:58:43.836Z,98941.96
2019-04-16T09:01:18.701Z,98941.96
2019-04-16T09:03:51.675Z,98967.72
2019-04-16T09:06:24.296Z,98968.25
2019-04-16T09:09:12.873Z,98970.08
2019-04-16T09:11:40.338Z,98974.89
2019-04-16T09:14:12.903Z,98972.84
2019-04-16T09:16:46.357Z,98972.84
2019-04-16T09:19:21.554Z,98968.30
2019-04-16T09:21:53.430Z,98964.20
2019-04-16T09:24:33.370Z,98964.50
2019-04-16T09:27:28.669Z,98966.41
2019-04-16T09:30:02.569Z,98955.84
2019-04-16T09:32:39.047Z,98947.02
2019-04-16T09:35:28.311Z,98947.88
2019-04-16T09:37:59.870Z,98946.00
2019-04-16T09:40:50.039Z,98946.00
2019-04-16T09:43:24.340Z,98943.38
2019-04-16T09:46:09.624Z,98946.10
2019-04-16T09:48:34.507Z,98940.31
2019-04-16T09:51:06.501Z,98936.37
2019-04-16T09:53:40.379Z,98935.52
2019-04-16T09:56:30.138Z,98933.11
2019-04-16T09:59:15.686Z,98937.11
2019-04-16T10:01:47.788Z,98939.89
2019-04-16T10:04:21.293Z,98943.16
2019-04-16T10:06:53.847Z,98931.45
2019-04-16T10:12:10.672Z,98929.79
2019-04-16T10:14:43.324Z,98927.94
2019-04-16T10:17:15.748Z,98935.72
2019-04-16T10:19:49.420Z,98935.72
2019-04-16T10:22:21.890Z,98933.30
2019-04-16T10:25:09.482Z,98931.50
2019-04-16T10:27:44.291Z,98936.28
2019-04-16T10:30:20.296Z,98932.66
2019-04-16T10:32:52.706Z,98917.55
2019-04-16T10:35:25.786Z,98917.55
2019-04-16T10:38:03.042Z,98936.11
2019-04-16T10:40:38.281Z,98926.93
2019-04-16T10:43:19.971Z,98890.59
2019-04-16T10:46:00.671Z,98890.59
2019-04-16T10:48:40.642Z,98924.31
2019-04-16T10:51:15.508Z,98916.44
2019-04-16T10:53:53.421Z,98901.03
2019-04-16T10:56:33.540Z,98901.03
2019-04-16T10:59:18.744Z,98912.94
2019-04-16T11:01:52.802Z,98902.80
2019-04-16T11:04:44.004Z,98912.63
2019-04-16T11:07:25.785Z,98898.84
2019-04-16T11:09:58.426Z,98903.92
2019-04-16T11:12:31.269Z,98895.60
2019-04-16T11:15:04.303Z,98890.53
2019-04-16T11:20:00.020Z,98887.86
2019-04-16T11:22:34.109Z,98887.86
2019-04-16T11:25:08.474Z,98881.65
2019-04-16T11:27:46.010Z,98880.78
2019-04-16T11:30:41.346Z,98878.60
2019-04-16T11:33:10.031Z,98878.60
2019-04-16T11:35:42.899Z,98879.31
2019-04-16T11:38:17.533Z,98882.06
2019-04-16T11:40:49.901Z,98875.00
2019-04-16T11:43:22.419Z,98875.00
2019-04-16T11:45:55.307Z,98878.65
2019-04-16T11:48:29.596Z,98873.94
2019-04-16T11:51:03.620Z,98881.38
2019-04-16T11:53:37.336Z,98867.20
2019-04-16T11:56:10.045Z,98873.29
2019-04-16T11:58:46.319Z,98865.88
2019-04-16T12:01:33.338Z,98867.88
2019-04-16T12:04:10.939Z,98867.88
2019-04-16T12:07:05.159Z,98875.00
2019-04-16T12:09:55.433Z,98874.19
2019-04-16T12:12:46.357Z,98871.19
2019-04-16T12:15:20.628Z,98868.88
2019-04-16T12:18:11.334Z,98870.75
2019-04-16T12:20:45.472Z,98875.34
2019-04-16T12:23:17.754Z,98863.56
2019-04-16T12:25:58.039Z,98866.56
2019-04-16T12:28:32.395Z,98865.02
2019-04-16T12:31:06.270Z,98872.80
2019-04-16T12:33:42.413Z,98863.52
2019-04-16T12:36:19.353Z,98865.03
2019-04-16T12:39:09.792Z,98880.04
2019-04-16T12:41:42.703Z,98880.04
2019-04-16T12:44:44.417Z,98882.30
2019-04-16T12:47:12.532Z,98888.98
2019-04-16T12:50:05.919Z,98879.20
2019-04-16T12:54:38.716Z,98886.59
2019-04-16T12:57:15.020Z,98893.69
2019-04-16T13:00:01.150Z,98891.33
2019-04-16T13:02:41.855Z,98887.59
2019-04-16T13:05:20.881Z,98878.77
2019-04-16T13:07:58.613Z,98886.40
2019-04-16T13:10:32.657Z,98883.80
2019-04-16T13:13:24.972Z,98881.16
2019-04-16T13:15:59.347Z,98877.53
2019-04-16T13:18:33.471Z,98875.84
2019-04-16T13:21:07.416Z,98884.50
2019-04-16T13:23:41.491Z,98884.08
2019-04-16T13:26:15.741Z,98886.47
2019-04-16T13:28:48.335Z,98882.53
2019-04-16T13:31:20.778Z,98890.27
2019-04-16T13:33:52.507Z,98899.20
2019-04-16T13:36:27.822Z,98891.41
2019-04-16T13:39:05.714Z,98896.47
2019-04-16T13:41:39.289Z,98898.92
2019-04-16T13:44:18.576Z,98901.03
2019-04-16T13:46:50.574Z,98902.80
2019-04-16T13:49:24.522Z,98905.80
2019-04-16T13:51:57.636Z,98902.06
2019-04-16T13:54:47.645Z,98904.39
2019-04-16T13:57:22.861Z,98906.25
2019-04-16T14:00:15.399Z,98898.58
2019-04-16T14:02:55.296Z,98902.22
2019-04-16T14:05:28.654Z,98897.70
2019-04-16T14:08:01.309Z,98893.22
2019-04-16T14:10:33.834Z,98871.34
2019-04-16T14:13:12.366Z,98871.34
2019-04-16T14:15:44.614Z,98880.50
2019-04-16T14:18:15.429Z,98885.89
2019-04-16T14:20:47.874Z,98887.90
2019-04-16T14:23:20.499Z,98889.81
2019-04-16T14:25:53.049Z,98883.13
2019-04-16T14:28:25.539Z,98887.27
2019-04-16T14:30:57.899Z,98893.45
2019-04-16T14:33:32.565Z,98891.39
2019-04-16T14:36:06.414Z,98888.31
2019-04-16T14:38:52.427Z,98898.28
2019-04-16T14:41:26.363Z,98892.39
2019-04-16T14:44:12.878Z,98889.98
2019-04-16T14:46:49.051Z,98888.08
2019-04-16T14:49:21.486Z,98894.83
2019-04-16T14:51:54.289Z,98891.80
2019-04-16T14:54:28.553Z,98866.20
2019-04-16T14:57:02.572Z,98866.20
2019-04-16T14:59:42.791Z,98902.23
2019-04-16T15:02:30.530Z,98903.73
2019-04-16T15:05:02.763Z,98902.95
2019-04-16T15:07:49.376Z,98907.88
2019-04-16T15:10:40.296Z,98906.59
2019-04-16T15:13:12.553Z,98941.05
2019-04-16T15:15:46.526Z,98941.05
2019-04-16T15:18:20.514Z,98943.02
2019-04-16T15:21:13.233Z,98953.05
2019-04-16T15:23:47.578Z,98956.83
2019-04-16T15:26:37.439Z,98956.83
2019-04-16T15:29:11.452Z,98945.25
2019-04-16T15:31:50.269Z,98947.19
2019-04-16T15:34:30.295Z,98948.13
2019-04-16T15:37:13.729Z,98951.86
2019-04-16T15:39:50.626Z,98951.86
2019-04-16T15:42:40.588Z,98958.03
2019-04-16T15:45:35.297Z,98957.50
2019-04-16T15:49:58.035Z,98957.89
2019-04-16T15:52:38.064Z,98959.03
2019-04-16T15:55:27.733Z,98957.27
2019-04-16T15:58:07.744Z,98963.68
2019-04-16T16:00:44.298Z,98965.63
2019-04-16T16:03:24.659Z,98965.98
2019-04-16T16:06:11.480Z,98965.98
2019-04-16T16:08:48.601Z,98975.50
2019-04-16T16:11:28.846Z,98976.09
2019-04-16T16:14:01.661Z,98981.25
2019-04-16T16:16:42.006Z,98976.50
2019-04-16T16:19:12.028Z,98980.25
2019-04-16T16:21:43.421Z,98980.75
2019-04-16T16:24:15.839Z,98981.79
2019-04-16T16:26:48.419Z,98984.72
2019-04-16T16:29:21.135Z,98993.52
2019-04-16T16:31:53.761Z,98991.70
2019-04-16T16:34:26.508Z,98996.42
2019-04-16T16:36:59.302Z,98997.94
2019-04-16T16:39:31.682Z,99000.32
2019-04-16T16:42:04.290Z,99000.32
2019-04-16T16:44:39.685Z,98995.94
2019-04-16T16:47:14.282Z,98983.00
2019-04-16T16:49:47.034Z,98999.33
2019-04-16T16:52:21.346Z,98999.33
2019-04-16T16:54:55.586Z,98997.91
2019-04-16T16:57:30.585Z,98997.91
2019-04-16T17:00:04.887Z,98995.66
2019-04-16T17:02:49.311Z,98992.66
2019-04-16T17:05:33.298Z,98998.03
2019-04-16T17:08:05.974Z,98989.62
2019-04-16T17:10:42.403Z,99008.48
2019-04-16T17:13:16.965Z,99008.48
2019-04-16T17:15:48.688Z,99008.05
2019-04-16T17:18:21.293Z,99011.19
2019-04-16T17:20:55.270Z,99006.28
2019-04-16T17:23:27.856Z,99013.73
2019-04-16T17:26:00.323Z,99013.73
2019-04-16T17:28:32.978Z,99012.13
2019-04-16T17:31:05.914Z,99012.13
2019-04-16T17:33:40.073Z,99022.02
2019-04-16T17:36:12.907Z,99022.52
2019-04-16T17:38:45.452Z,99022.25
2019-04-16T17:41:34.834Z,99024.45
2019-04-16T17:44:09.302Z,99024.91
2019-04-16T17:46:43.444Z,99033.54
2019-04-16T17:49:24.278Z,99033.54
2019-04-16T17:52:02.458Z,99036.81
2019-04-16T17:54:48.740Z,99048.14
2019-04-16T17:57:32.361Z,99052.55
2019-04-16T18:00:22.929Z,99058.64
2019-04-16T18:03:03.091Z,99074.92
2019-04-16T18:05:36.627Z,99072.03
2019-04-16T18:08:12.114Z,99074.75
2019-04-16T18:10:44.338Z,99072.20
2019-04-16T18:13:16.644Z,99071.31
2019-04-16T18:15:51.908Z,99071.31
2019-04-16T18:18:39.801Z,99092.87
2019-04-16T18:21:22.799Z,99086.42
2019-04-16T18:23:57.027Z,99093.08
2019-04-16T18:26:47.844Z,99100.07
2019-04-16T18:29:32.844Z,99102.97
2019-04-16T18:32:05.483Z,99100.31
2019-04-16T18:34:56.072Z,99100.58
2019-04-16T18:37:30.300Z,99104.15
2019-04-16T18:40:19.703Z,99112.34
2019-04-16T18:42:59.919Z,99112.34
2019-04-16T18:45:55.618Z,99118.23
2019-04-16T18:48:28.311Z,99125.33
2019-04-16T18:51:01.988Z,99096.02
2019-04-16T18:53:34.467Z,99096.02
2019-04-16T18:56:07.307Z,99131.80
2019-04-16T18:58:41.841Z,99135.02
2019-04-16T19:01:16.389Z,99126.11
2019-04-16T19:03:48.986Z,99126.11
2019-04-16T19:06:21.506Z,99147.73
2019-04-16T19:08:54.461Z,99153.13
2019-04-16T19:11:27.304Z,99157.11
2019-04-16T19:14:00.313Z,99156.68
2019-04-16T19:16:32.818Z,99161.42
2019-04-16T19:19:05.504Z,99161.42
2019-04-16T19:21:42.411Z,99161.42
2019-04-16T19:24:14.473Z,99161.42
2019-04-16T19:26:46.879Z,99155.22
2019-04-16T19:29:19.459Z,99161.42
2019-04-16T19:31:54.982Z,99171.69
2019-04-16T19:34:26.653Z,99173.84
2019-04-16T19:37:00.830Z,99180.98
2019-04-16T19:39:34.723Z,99177.72
2019-04-16T19:42:11.090Z,99172.92
2019-04-16T19:44:41.897Z,99166.95
2019-04-16T19:47:14.342Z,99166.95
2019-04-16T19:49:46.981Z,99173.60
2019-04-16T19:52:18.646Z,99171.22
2019-04-16T19:54:51.332Z,99170.70
2019-04-16T19:57:24.025Z,99163.55
2019-04-16T19:59:55.811Z,99163.55
2019-04-16T20:02:33.041Z,99162.36
2019-04-16T20:05:02.727Z,99162.30
2019-04-16T20:07:35.870Z,99180.39
2019-04-16T20:10:08.818Z,99180.39
2019-04-16T20:12:41.395Z,99186.28
2019-04-16T20:15:14.299Z,99193.46
2019-04-16T20:17:46.984Z,99195.77
2019-04-16T20:20:19.522Z,99195.77
2019-04-16T20:22:52.284Z,99199.09
2019-04-16T20:25:24.820Z,99205.84
2019-04-16T20:27:57.353Z,99205.84
2019-04-16T20:30:31.301Z,99201.70
2019-04-16T20:33:04.402Z,99190.67
2019-04-16T20:35:36.763Z,99190.67
2019-04-16T20:38:09.317Z,99212.45
2019-04-16T20:40:41.854Z,99188.80
2019-04-16T20:43:14.550Z,99188.80
2019-04-16T20:45:47.061Z,99209.17
2019-04-16T20:48:21.304Z,99206.95
2019-04-16T20:51:41.737Z,99211.39
2019-04-16T20:54:18.712Z,99211.39
2019-04-16T20:56:53.136Z,99212.67
2019-04-16T20:59:31.422Z,99196.41
2019-04-16T21:02:11.569Z,99196.41
2019-04-16T21:04:46.145Z,99200.88
2019-04-16T21:07:21.815Z,99203.96
2019-04-16T21:10:15.613Z,99212.51
2019-04-16T21:12:55.741Z,99211.53
2019-04-16T21:15:35.669Z,99208.05
2019-04-16T21:18:15.940Z,99213.40
2019-04-16T21:20:55.232Z,99211.05
2019-04-16T21:23:34.725Z,99210.84
2019-04-16T21:26:07.122Z,99216.78
2019-04-16T21:28:58.588Z,99214.77
2019-04-16T21:31:45.314Z,99214.77
2019-04-16T21:34:29.892Z,99217.94
2019-04-16T21:37:02.583Z,99223.79
2019-04-16T21:39:36.824Z,99219.28
2019-04-16T21:42:09.444Z,99221.56
2019-04-16T21:44:44.659Z,99222.47
2019-04-16T21:47:16.683Z,99229.92
2019-04-16T21:49:49.317Z,99229.33
2019-04-16T21:52:23.275Z,99206.34
2019-04-16T21:54:56.365Z,99206.34
2019-04-16T21:57:28.292Z,99238.84
2019-04-16T22:00:00.748Z,99244.02
2019-04-16T22:02:37.924Z,99244.02
2019-04-16T22:05:16.730Z,99249.44
2019-04-16T22:07:49.442Z,99246.07
2019-04-16T22:10:24.314Z,99257.77
2019-04-16T22:13:00.795Z,99260.32
2019-04-16T22:15:48.573Z,99254.02
2019-04-16T22:18:23.807Z,99249.22
2019-04-16T22:21:01.033Z,99253.70
2019-04-16T22:23:35.490Z,99253.09
2019-04-16T22:26:11.015Z,99249.13
2019-04-16T22:28:45.518Z,99254.73
2019-04-16T22:31:37.187Z,99253.82
2019-04-16T22:34:06.735Z,99262.69
2019-04-16T22:36:39.300Z,99260.23
2019-04-16T22:39:22.852Z,99259.53
2019-04-16T22:41:58.339Z,99265.11
2019-04-16T22:44:46.355Z,99264.91
2019-04-16T22:47:20.393Z,99268.07
2019-04-16T22:49:55.137Z,99250.16
2019-04-16T22:52:28.602Z,99250.16
2019-04-16T22:55:01.342Z,99270.12
2019-04-16T22:57:36.810Z,99269.52
2019-04-16T23:00:12.975Z,99271.94
2019-04-16T23:02:48.299Z,99273.89
2019-04-16T23:05:21.513Z,99265.31
2019-04-16T23:07:55.322Z,99269.60
2019-04-16T23:10:27.729Z,99271.45
2019-04-16T23:13:01.635Z,99271.45
2019-04-16T23:15:35.404Z,99269.81
2019-04-16T23:18:07.901Z,99269.81
2019-04-16T23:20:42.008Z,99287.73
2019-04-16T23:23:18.048Z,99285.27
2019-04-16T23:25:49.170Z,99286.91
2019-04-16T23:28:21.866Z,99291.48
2019-04-16T23:30:57.562Z,99281.43
2019-04-16T23:33:32.858Z,99283.95
2019-04-16T23:36:06.482Z,99286.51
2019-04-16T23:38:39.332Z,99289.25
2019-04-16T23:41:16.658Z,99294.14
2019-04-16T23:44:03.044Z,99294.14
2019-04-16T23:46:37.604Z,99289.27
2019-04-16T23:49:30.962Z,99293.95
2019-04-16T23:52:03.849Z,99302.81
2019-04-16T23:54:40.765Z,99293.83
2019-04-16T23:57:18.330Z,99301.07
